Woodhaven, Michigan
Current Conditions -  °F | °C
As of 9:34 AM on Saturday 25 Oct 2014 (Local Time) from KONZ Reporting Station
Haze Haze  
Wind Chill: 55°   Ceiling: Unl
Heat Index: 55°   Visibility: 5mi
Dew Point: 52°   Wind: 12mph
Humidity: 88%   Direction: 240°WSW
Pressure: 29.83"   Gusts: NA
Location:  42.14°N, 83.24°W
Report Text: KONZ 251334Z AUTO 24010KT 5SM HZ CLR 13/11 A2983 RMK AO2
Loading
Personal Weather Stations






























Interactive Weather Map New forecast layout! Learn more

10-Day Weather Forecast

Advertisements
Track Severe Weather on mobile